This is the latest recevied weather packets stored in our database for station/object BMCB-18. If no packets are shown the sender has not sent any weather packets the latest 10 day(s).
| Time | Temp. | Humidity | Pressure | Rain* | Wind** | Luminosity | Snow |
|---|---|---|---|---|---|---|---|
| 1777126844 | 16.11° C | 35% | 1021.9 hPa | 0 mm | - | 676 W/m² | - |
| 1777122643 | 15.56° C | 43% | 1022.2 hPa | 0 mm | - | 782 W/m² | - |
| 1777122043 | 15° C | 42% | 1022.3 hPa | 0 mm | - | 792 W/m² | - |
| 1777121448 | 15.56° C | 44% | 1022.3 hPa | 0 mm | - | 804 W/m² | - |
| 1777119047 | 14.44° C | 54% | 1022.5 hPa | 0 mm | - | 838 W/m² | - |
| 1777117844 | 13.89° C | 62% | 1022.7 hPa | 0 mm | - | 842 W/m² | - |
| 1777117247 | 12.78° C | 64% | 1022.8 hPa | 0 mm | - | 832 W/m² | - |
| 1777111844 | 9.44° C | 88% | 1023.3 hPa | 0 mm | - | 784 W/m² | - |
| 1777110641 | 8.33° C | 94% | 1023.3 hPa | 0 mm | - | 740 W/m² | - |
| 1777109447 | 7.22° C | 10% | 1023.3 hPa | 0 mm | - | - | - |
| 1777104644 | 5.56° C | 10% | 1023.3 hPa | 0 mm | - | - | - |
| 1777102243 | 4.44° C | 10% | 1023.2 hPa | 0 mm | - | - | - |
| 1777100442 | 3.89° C | 10% | 1023.1 hPa | 0 mm | - | - | - |
| 1777087842 | 1.67° C | 98% | 1022.3 hPa | 0 mm | - | 0 W/m² | - |
| 1777068644 | 6.67° C | 79% | 1023.8 hPa | 0 mm | - | 0 W/m² | - |
| 1777060847 | 11.11° C | 63% | 1023.5 hPa | 0 mm | - | 0 W/m² | - |
| 1777055445 | 14.44° C | 52% | 1023.1 hPa | 0 mm | - | 16 W/m² | - |
| 1777052443 | 16.11° C | 43% | 1023 hPa | 0 mm | - | 34 W/m² | - |
| 1777036244 | 15° C | 54% | 1025.6 hPa | 0 mm | - | 770 W/m² | - |
| 1777031445 | 12.78° C | 61% | 1026.2 hPa | 0 mm | - | 822 W/m² | - |
| 1777030845 | 12.78° C | 63% | 1026.3 hPa | 0 mm | - | 834 W/m² | - |
| 1777028443 | 11.11° C | 67% | 1026.6 hPa | 0 mm | - | 828 W/m² | - |
| 1777027843 | 11.11° C | 71% | 1026.7 hPa | 0 mm | - | 820 W/m² | - |
| 1777023043 | 5.56° C | 10% | 1027.3 hPa | 0 mm | - | - | - |
| 1777017642 | 4.44° C | 10% | 1027.2 hPa | 0 mm | - | - | - |
* Rain latest hour (hover to see other rain measurements)
** Current wind speed in m/s (hover to see current wind gust speed)